createdAt,value
2018-09-11T00:05:40.851Z,14.80
2018-09-11T00:15:42.149Z,14.80
2018-09-11T00:25:43.404Z,14.80
2018-09-11T00:35:44.639Z,14.90
2018-09-11T00:45:45.919Z,14.90
2018-09-11T00:55:47.944Z,15.10
2018-09-11T01:05:49.357Z,15.10
2018-09-11T01:15:50.656Z,15.00
2018-09-11T01:25:51.935Z,14.80
2018-09-11T01:35:53.227Z,14.80
2018-09-11T01:45:55.259Z,14.80
2018-09-11T01:55:56.525Z,14.80
2018-09-11T02:05:57.966Z,14.90
2018-09-11T02:15:59.202Z,15.00
2018-09-11T02:26:00.468Z,15.10
2018-09-11T02:36:01.749Z,15.10
2018-09-11T02:46:03.026Z,15.10
2018-09-11T02:56:04.278Z,15.10
2018-09-11T03:06:05.759Z,15.10
2018-09-11T03:16:07.025Z,15.20
2018-09-11T03:26:08.291Z,15.20
2018-09-11T03:36:10.338Z,15.10
2018-09-11T03:46:11.636Z,15.00
2018-09-11T03:56:13.042Z,15.00
2018-09-11T04:06:14.490Z,14.90
2018-09-11T04:16:16.507Z,15.00
2018-09-11T04:26:17.776Z,15.00
2018-09-11T04:36:19.049Z,15.00
2018-09-11T04:46:20.291Z,15.00
2018-09-11T04:56:22.291Z,15.20
2018-09-11T05:06:23.567Z,15.20
2018-09-11T05:16:24.827Z,15.40
2018-09-11T05:26:26.098Z,15.60
2018-09-11T05:36:28.149Z,15.80
2018-09-11T05:46:29.410Z,15.80
2018-09-11T05:56:31.551Z,16.40
2018-09-11T06:06:32.864Z,16.30
2018-09-11T06:16:34.123Z,16.70
2018-09-11T06:26:36.147Z,17.80
2018-09-11T06:36:37.390Z,17.70
2018-09-11T06:46:38.635Z,18.00
2018-09-11T06:56:39.911Z,18.30
2018-09-11T07:06:41.956Z,19.20
2018-09-11T07:16:43.223Z,19.20
2018-09-11T07:26:45.289Z,20.30
2018-09-11T07:36:46.557Z,20.30
2018-09-11T07:46:48.015Z,20.50
2018-09-11T07:56:49.246Z,21.40
2018-09-11T08:06:50.520Z,21.80
2018-09-11T08:16:52.695Z,22.80
2018-09-11T08:26:53.951Z,22.80
2018-09-11T08:36:55.221Z,23.80
2018-09-11T08:46:57.396Z,27.80
2018-09-11T08:56:58.842Z,27.70
2018-09-11T09:07:00.109Z,31.30
2018-09-11T09:17:01.371Z,33.20
2018-09-11T09:27:02.669Z,34.40
2018-09-11T09:37:04.062Z,35.00
2018-09-11T09:47:05.218Z,33.70
2018-09-11T09:57:07.227Z,33.80
2018-09-11T10:07:09.238Z,33.50
2018-09-11T10:17:11.243Z,30.80
2018-09-11T10:27:12.500Z,30.70
2018-09-11T10:37:13.794Z,30.30
2018-09-11T10:47:15.113Z,31.80
2018-09-11T10:57:16.384Z,30.60
2018-09-11T11:07:18.024Z,29.60
2018-09-11T11:17:19.462Z,29.20
2018-09-11T11:27:20.886Z,28.90
2018-09-11T11:37:26.884Z,28.70
2018-09-11T11:47:28.035Z,28.60
2018-09-11T11:57:29.286Z,28.40
2018-09-11T12:07:30.621Z,28.50
2018-09-11T12:17:31.998Z,28.10
2018-09-11T12:27:33.263Z,27.70
2018-09-11T12:37:34.505Z,27.50
2018-09-11T12:47:36.126Z,27.40
2018-09-11T12:57:37.312Z,27.20
2018-09-11T13:07:38.570Z,27.00
2018-09-11T13:17:39.850Z,27.00
2018-09-11T13:27:41.188Z,27.20
2018-09-11T13:37:42.914Z,27.40
2018-09-11T13:47:44.960Z,27.70
2018-09-11T13:57:46.257Z,27.70
2018-09-11T14:07:48.282Z,27.00
2018-09-11T14:17:49.553Z,26.90
2018-09-11T14:27:50.826Z,26.40
2018-09-11T14:37:52.131Z,26.20
2018-09-11T14:47:53.403Z,26.30
2018-09-11T14:57:54.680Z,26.30
2018-09-11T15:07:56.038Z,26.20
2018-09-11T15:18:00.619Z,26.10
2018-09-11T15:28:04.911Z,25.90
2018-09-11T15:38:07.239Z,25.40
2018-09-11T15:48:08.573Z,25.40
2018-09-11T15:58:09.896Z,25.10
2018-09-11T16:08:12.209Z,24.70
2018-09-11T16:18:13.446Z,24.30
2018-09-11T16:28:15.512Z,23.60
2018-09-11T16:38:16.788Z,23.50
2018-09-11T16:48:18.583Z,23.10
2018-09-11T16:58:20.807Z,22.00
2018-09-11T17:08:22.843Z,21.40
2018-09-11T17:18:24.110Z,21.40
2018-09-11T17:28:25.370Z,21.00
2018-09-11T17:38:26.654Z,20.50
2018-09-11T17:48:28.037Z,20.10
2018-09-11T17:58:29.473Z,19.90
2018-09-11T18:08:31.592Z,19.30
2018-09-11T18:18:32.930Z,19.30
2018-09-11T18:28:34.234Z,19.00
2018-09-11T18:38:35.470Z,18.70
2018-09-11T18:48:36.737Z,18.50
2018-09-11T18:58:37.979Z,18.30
2018-09-11T19:08:39.243Z,18.10
2018-09-11T19:18:40.533Z,17.90
2018-09-11T19:28:42.590Z,17.60
2018-09-11T19:38:44.068Z,17.60
2018-09-11T19:48:45.344Z,17.50
2018-09-11T19:58:46.662Z,17.50
2018-09-11T20:08:47.853Z,17.30
2018-09-11T20:18:49.186Z,17.20
2018-09-11T20:28:50.406Z,17.30
2018-09-11T20:38:51.634Z,17.30
2018-09-11T20:48:52.866Z,17.10
2018-09-11T20:58:54.122Z,16.90
2018-09-11T21:08:55.387Z,16.70
2018-09-11T21:18:56.659Z,16.70
2018-09-11T21:28:58.004Z,16.50
2018-09-11T21:38:59.303Z,16.40
2018-09-11T21:49:00.598Z,16.20
2018-09-11T21:59:01.853Z,16.20
2018-09-11T22:09:03.866Z,16.10
2018-09-11T22:19:05.896Z,16.00
2018-09-11T22:29:07.139Z,15.90
2018-09-11T22:39:08.370Z,16.00
2018-09-11T22:49:10.410Z,15.60
2018-09-11T22:59:11.671Z,15.50
2018-09-11T23:09:13.699Z,15.30
2018-09-11T23:19:15.105Z,15.30
2018-09-11T23:29:16.359Z,15.30
2018-09-11T23:39:17.767Z,15.20
2018-09-11T23:49:19.014Z,15.10
2018-09-11T23:59:20.243Z,15.00
